createdAt,value
2022-12-17T00:01:22.217Z,57.30
2022-12-17T00:04:09.594Z,68.00
2022-12-17T00:07:02.332Z,68.80
2022-12-17T00:09:50.473Z,60.30
2022-12-17T00:12:38.920Z,64.30
2022-12-17T00:15:26.752Z,59.20
2022-12-17T00:18:22.550Z,62.10
2022-12-17T00:21:14.373Z,56.90
2022-12-17T00:24:02.232Z,54.00
2022-12-17T00:26:59.006Z,62.20
2022-12-17T00:29:46.939Z,56.70
2022-12-17T00:32:34.421Z,58.20
2022-12-17T00:35:22.532Z,57.20
2022-12-17T00:38:10.430Z,55.20
2022-12-17T00:40:59.221Z,56.70
2022-12-17T00:43:47.883Z,58.00
2022-12-17T00:46:35.155Z,54.00
2022-12-17T00:49:22.971Z,61.20
2022-12-17T00:52:11.372Z,60.30
2022-12-17T00:54:58.741Z,60.90
2022-12-17T00:57:46.042Z,56.70
2022-12-17T01:00:35.114Z,67.60
2022-12-17T01:03:30.993Z,69.90
2022-12-17T01:06:22.692Z,67.90
2022-12-17T01:09:10.053Z,60.60
2022-12-17T01:11:58.010Z,69.20
2022-12-17T01:14:45.886Z,59.00
2022-12-17T01:17:33.393Z,65.30
2022-12-17T01:20:20.861Z,63.40
2022-12-17T01:23:08.953Z,63.70
2022-12-17T01:25:56.393Z,61.90
2022-12-17T01:28:45.282Z,63.50
2022-12-17T01:31:35.332Z,54.70
2022-12-17T01:37:13.755Z,60.30
2022-12-17T01:40:01.347Z,61.20
2022-12-17T01:45:56.882Z,57.60
2022-12-17T01:49:13.371Z,57.70
2022-12-17T01:52:01.430Z,57.90
2022-12-17T01:54:49.073Z,71.50
2022-12-17T01:57:36.296Z,70.30
2022-12-17T02:00:29.270Z,62.00
2022-12-17T02:03:18.309Z,60.20
2022-12-17T02:07:01.555Z,60.80
2022-12-17T02:10:04.420Z,61.30
2022-12-17T02:13:06.685Z,59.10
2022-12-17T02:16:13.775Z,56.90
2022-12-17T02:19:28.152Z,53.30
2022-12-17T02:22:23.516Z,55.40
2022-12-17T02:25:20.123Z,51.40
2022-12-17T02:28:07.970Z,55.20
2022-12-17T02:30:56.911Z,54.60
2022-12-17T02:33:45.355Z,53.10
2022-12-17T02:36:33.656Z,51.90
2022-12-17T02:39:21.475Z,49.90
2022-12-17T02:42:16.054Z,49.30
2022-12-17T02:45:05.143Z,46.90
2022-12-17T02:47:52.992Z,54.90
2022-12-17T02:50:43.211Z,56.20
2022-12-17T02:56:19.263Z,67.60
2022-12-17T02:59:06.552Z,55.90
2022-12-17T03:01:54.961Z,60.50
2022-12-17T03:04:43.902Z,54.50
2022-12-17T03:07:31.806Z,58.80
2022-12-17T03:10:18.920Z,54.00
2022-12-17T03:13:03.014Z,51.50
2022-12-17T03:15:51.926Z,54.60
2022-12-17T03:18:39.833Z,53.90
2022-12-17T03:21:27.201Z,52.50
2022-12-17T03:24:14.893Z,46.40
2022-12-17T03:27:04.223Z,39.60
2022-12-17T03:29:51.443Z,49.40
2022-12-17T03:32:39.033Z,54.10
2022-12-17T03:35:38.500Z,48.60
2022-12-17T03:38:31.743Z,49.00
2022-12-17T03:41:19.010Z,53.60
2022-12-17T03:44:06.282Z,54.60
2022-12-17T03:46:53.503Z,50.00
2022-12-17T03:49:41.539Z,48.70
2022-12-17T03:52:28.820Z,46.90
2022-12-17T03:55:16.182Z,48.50
2022-12-17T03:58:03.483Z,52.70
2022-12-17T04:00:54.959Z,49.60
2022-12-17T04:03:42.279Z,51.30
2022-12-17T04:06:29.741Z,54.10
2022-12-17T04:09:17.193Z,49.30
2022-12-17T04:12:04.650Z,50.10
2022-12-17T04:14:54.390Z,52.20
2022-12-17T04:17:41.673Z,50.40
2022-12-17T04:20:29.647Z,50.20
2022-12-17T04:23:17.581Z,47.30
2022-12-17T04:26:04.786Z,47.50
2022-12-17T04:28:53.546Z,59.30
2022-12-17T04:31:41.184Z,52.30
2022-12-17T04:34:28.323Z,46.60
2022-12-17T04:37:15.703Z,50.60
2022-12-17T04:40:03.099Z,50.10
2022-12-17T04:42:50.463Z,46.40
2022-12-17T04:45:38.034Z,42.80
2022-12-17T04:48:26.866Z,42.70
2022-12-17T04:51:14.310Z,42.30
2022-12-17T04:54:01.892Z,45.70
2022-12-17T04:56:49.144Z,42.30
2022-12-17T04:59:36.471Z,47.00
2022-12-17T05:02:23.987Z,37.40
2022-12-17T05:05:19.949Z,40.60
2022-12-17T05:08:07.186Z,49.80
2022-12-17T05:10:55.959Z,44.80
2022-12-17T05:13:45.983Z,55.50
2022-12-17T05:16:33.714Z,50.80
2022-12-17T05:19:21.130Z,44.80
2022-12-17T05:22:08.650Z,49.20
2022-12-17T05:24:59.534Z,48.50
2022-12-17T05:27:47.201Z,51.70
2022-12-17T05:42:29.816Z,43.20
2022-12-17T05:45:17.420Z,43.90
2022-12-17T05:48:05.073Z,47.10
2022-12-17T05:50:52.822Z,48.30
2022-12-17T05:53:45.939Z,50.20
2022-12-17T05:56:33.703Z,52.80
2022-12-17T05:59:21.326Z,64.40
2022-12-17T06:02:08.850Z,58.20
2022-12-17T06:05:01.810Z,43.70
2022-12-17T06:07:49.670Z,49.40
2022-12-17T06:10:37.259Z,45.80
2022-12-17T06:13:25.223Z,56.30
2022-12-17T06:16:12.394Z,51.70
2022-12-17T06:19:00.184Z,53.10
2022-12-17T06:21:48.495Z,47.50
2022-12-17T06:24:35.798Z,43.00
2022-12-17T06:27:22.992Z,50.40
2022-12-17T06:30:15.543Z,57.20
2022-12-17T06:33:05.832Z,49.10
2022-12-17T06:35:53.232Z,50.10
2022-12-17T06:38:40.702Z,48.20
2022-12-17T06:41:27.952Z,51.80
2022-12-17T06:44:16.342Z,47.00
2022-12-17T06:47:03.602Z,49.80
2022-12-17T06:49:50.803Z,50.50
2022-12-17T06:52:38.232Z,54.10
2022-12-17T06:55:26.570Z,56.80
2022-12-17T06:58:18.759Z,50.40
2022-12-17T07:01:06.955Z,48.30
2022-12-17T07:07:33.050Z,42.20
2022-12-17T07:10:23.341Z,58.10
2022-12-17T07:13:10.661Z,61.30
2022-12-17T07:15:58.208Z,56.00
2022-12-17T07:18:45.696Z,49.80
2022-12-17T07:21:32.910Z,49.40
2022-12-17T07:24:22.524Z,53.50
2022-12-17T07:27:09.760Z,44.10
2022-12-17T07:29:57.698Z,47.20
2022-12-17T07:32:44.924Z,52.20
2022-12-17T07:35:32.689Z,58.40
2022-12-17T07:38:21.559Z,50.30
2022-12-17T07:41:09.464Z,51.30
2022-12-17T07:43:57.000Z,62.00
2022-12-17T07:46:47.976Z,61.30
2022-12-17T07:49:35.504Z,56.00
2022-12-17T07:52:22.811Z,49.70
2022-12-17T07:55:13.188Z,56.10
2022-12-17T07:58:05.646Z,54.30
2022-12-17T08:00:53.017Z,48.60
2022-12-17T08:03:40.910Z,54.50
2022-12-17T08:06:28.892Z,54.10
2022-12-17T08:09:16.550Z,55.50
2022-12-17T08:12:03.851Z,50.20
2022-12-17T08:14:51.518Z,46.70
2022-12-17T08:17:39.745Z,44.90
2022-12-17T08:21:31.852Z,49.00
2022-12-17T08:24:18.632Z,55.50
2022-12-17T08:27:06.151Z,50.00
2022-12-17T08:29:53.505Z,46.30
2022-12-17T08:32:41.200Z,47.20
2022-12-17T08:35:29.029Z,45.10
2022-12-17T08:38:24.591Z,48.60
2022-12-17T08:41:14.960Z,48.30
2022-12-17T08:44:04.041Z,38.00
2022-12-17T08:46:51.924Z,43.30
2022-12-17T08:49:39.418Z,39.20
2022-12-17T08:52:27.173Z,38.20
2022-12-17T08:55:14.600Z,47.50
2022-12-17T09:01:02.294Z,42.40
2022-12-17T09:03:49.818Z,36.40
2022-12-17T09:06:39.299Z,37.70
2022-12-17T09:09:27.380Z,43.60
2022-12-17T09:13:21.237Z,37.40
2022-12-17T09:16:15.692Z,38.80
2022-12-17T09:19:03.079Z,39.70
2022-12-17T09:22:56.058Z,38.10
2022-12-17T09:25:43.201Z,36.60
2022-12-17T09:28:30.674Z,31.70
2022-12-17T09:31:19.517Z,45.10
2022-12-17T09:34:07.039Z,40.60
2022-12-17T09:36:57.912Z,33.40
2022-12-17T09:39:45.452Z,35.60
2022-12-17T09:43:00.351Z,32.90
2022-12-17T09:45:54.665Z,38.00
2022-12-17T09:49:00.589Z,31.00
2022-12-17T09:51:48.820Z,35.30
2022-12-17T09:54:44.222Z,29.10
2022-12-17T09:57:39.145Z,55.10
2022-12-17T10:00:45.542Z,35.10
2022-12-17T10:03:42.700Z,34.70
2022-12-17T10:07:44.319Z,32.10
2022-12-17T10:10:46.056Z,35.10
2022-12-17T10:13:38.786Z,31.90
2022-12-17T10:16:47.552Z,41.00
2022-12-17T10:19:46.105Z,40.70
2022-12-17T10:22:50.419Z,34.70
2022-12-17T10:25:42.311Z,34.60
2022-12-17T10:28:32.879Z,30.30
2022-12-17T10:31:24.130Z,31.80
2022-12-17T10:34:15.868Z,28.70
2022-12-17T10:37:07.066Z,29.10
2022-12-17T10:39:55.032Z,25.10
2022-12-17T10:42:46.900Z,29.10
2022-12-17T10:45:42.250Z,29.40
2022-12-17T10:48:45.711Z,33.40
2022-12-17T10:51:51.039Z,40.60
2022-12-17T10:54:50.548Z,38.90
2022-12-17T10:57:55.127Z,32.80
2022-12-17T11:01:23.667Z,37.50
2022-12-17T11:04:13.760Z,33.70
2022-12-17T11:10:08.475Z,32.10
2022-12-17T11:13:20.845Z,27.70
2022-12-17T11:16:11.722Z,26.20
2022-12-17T11:19:03.703Z,30.60
2022-12-17T11:21:58.307Z,32.10
2022-12-17T11:24:54.363Z,35.90
2022-12-17T11:27:54.590Z,32.10
2022-12-17T11:30:56.597Z,24.20
2022-12-17T11:33:53.468Z,29.30
2022-12-17T11:36:46.176Z,27.90
2022-12-17T11:40:02.996Z,29.70
2022-12-17T11:42:56.692Z,31.50
2022-12-17T11:50:20.873Z,26.60
2022-12-17T11:53:38.130Z,34.50
2022-12-17T11:56:35.431Z,25.00
2022-12-17T11:59:51.143Z,26.30
2022-12-17T12:03:18.427Z,24.90
2022-12-17T12:06:16.651Z,24.10
2022-12-17T12:09:31.754Z,27.60
2022-12-17T12:12:25.273Z,26.60
2022-12-17T12:15:24.936Z,25.70
2022-12-17T12:18:18.362Z,24.50
2022-12-17T12:21:31.072Z,27.90
2022-12-17T12:24:39.441Z,30.00
2022-12-17T12:27:48.881Z,24.50
2022-12-17T12:30:42.417Z,30.70
2022-12-17T12:33:54.702Z,24.90
2022-12-17T12:36:45.574Z,26.00
2022-12-17T12:39:40.576Z,25.70
2022-12-17T12:42:46.572Z,24.00
2022-12-17T12:45:55.422Z,25.20
2022-12-17T12:49:01.331Z,24.60
2022-12-17T12:51:52.791Z,23.70
2022-12-17T12:54:42.985Z,24.40
2022-12-17T12:57:53.928Z,24.10
2022-12-17T13:00:43.250Z,27.50
2022-12-17T13:07:44.936Z,27.50
2022-12-17T13:10:31.755Z,22.90
2022-12-17T13:13:18.706Z,25.20
2022-12-17T13:15:59.390Z,23.90
2022-12-17T13:18:41.357Z,22.80
2022-12-17T13:21:17.971Z,23.70
2022-12-17T13:23:48.379Z,24.70
2022-12-17T13:26:31.965Z,22.70
2022-12-17T13:29:13.564Z,21.30
2022-12-17T13:31:54.459Z,22.90
2022-12-17T13:34:55.503Z,30.70
2022-12-17T13:38:59.830Z,29.00
2022-12-17T13:41:33.816Z,25.10
2022-12-17T13:44:20.057Z,29.10
2022-12-17T13:46:52.632Z,28.60
2022-12-17T13:49:31.933Z,24.80
2022-12-17T13:52:19.756Z,27.70
2022-12-17T13:54:50.312Z,24.90
2022-12-17T13:57:23.525Z,23.40
2022-12-17T13:59:59.195Z,24.40
2022-12-17T14:02:42.920Z,24.50
2022-12-17T14:05:33.585Z,22.90
2022-12-17T14:08:09.426Z,22.50
2022-12-17T14:10:40.064Z,24.80
2022-12-17T14:13:16.478Z,26.50
2022-12-17T14:15:53.389Z,24.30
2022-12-17T14:18:24.102Z,24.70
2022-12-17T14:20:57.853Z,23.80
2022-12-17T14:23:33.510Z,23.80
2022-12-17T14:26:04.074Z,22.30
2022-12-17T14:28:50.181Z,24.10
2022-12-17T14:31:27.638Z,16.60
2022-12-17T14:34:11.685Z,24.30
2022-12-17T14:36:48.697Z,25.60
2022-12-17T14:39:25.129Z,24.30
2022-12-17T14:42:15.567Z,22.80
2022-12-17T14:45:08.311Z,22.40
2022-12-17T14:47:39.773Z,18.30
2022-12-17T14:50:19.457Z,21.80
2022-12-17T14:52:54.955Z,21.90
2022-12-17T14:55:40.607Z,19.60
2022-12-17T14:58:15.185Z,19.10
2022-12-17T15:00:59.623Z,15.20
2022-12-17T15:03:33.881Z,18.40
2022-12-17T15:06:07.001Z,17.40
2022-12-17T15:08:51.345Z,15.80
2022-12-17T15:11:23.393Z,22.00
2022-12-17T15:13:56.662Z,19.20
2022-12-17T15:16:27.482Z,26.10
2022-12-17T15:18:57.937Z,23.30
2022-12-17T15:21:29.155Z,23.30
2022-12-17T15:23:59.649Z,23.20
2022-12-17T15:26:30.199Z,24.00
2022-12-17T15:29:00.673Z,23.10
2022-12-17T15:31:35.455Z,25.70
2022-12-17T15:34:07.002Z,21.10
2022-12-17T15:36:37.920Z,25.50
2022-12-17T15:39:09.933Z,25.10
2022-12-17T15:42:01.014Z,22.20
2022-12-17T15:45:04.022Z,24.50
2022-12-17T15:47:34.650Z,25.40
2022-12-17T15:50:07.477Z,25.00
2022-12-17T15:52:38.288Z,24.50
2022-12-17T15:55:09.323Z,27.40
2022-12-17T15:57:39.890Z,22.40
2022-12-17T16:00:11.352Z,18.90
2022-12-17T16:02:43.380Z,20.80
2022-12-17T16:05:21.160Z,24.70
2022-12-17T16:07:53.330Z,17.80
2022-12-17T16:10:23.704Z,21.10
2022-12-17T16:12:55.112Z,20.10
2022-12-17T16:15:25.712Z,21.00
2022-12-17T16:17:56.650Z,18.80
2022-12-17T16:20:28.514Z,17.20
2022-12-17T16:22:58.924Z,17.70
2022-12-17T16:25:29.571Z,18.60
2022-12-17T16:28:01.706Z,19.00
2022-12-17T16:30:32.927Z,16.30
2022-12-17T16:33:04.419Z,12.40
2022-12-17T16:35:35.908Z,14.20
2022-12-17T16:38:07.575Z,14.80
2022-12-17T16:40:41.577Z,15.70
2022-12-17T16:43:12.702Z,16.60
2022-12-17T16:45:50.927Z,14.30
2022-12-17T16:48:25.181Z,16.60
2022-12-17T16:50:56.928Z,17.10
2022-12-17T16:53:28.120Z,15.80
2022-12-17T16:55:58.572Z,17.20
2022-12-17T16:58:28.883Z,17.40
2022-12-17T17:00:59.613Z,20.80
2022-12-17T17:03:30.257Z,21.90
2022-12-17T17:06:05.263Z,25.20
2022-12-17T17:08:39.550Z,19.70
2022-12-17T17:11:15.211Z,21.00
2022-12-17T17:13:46.001Z,22.40
2022-12-17T17:16:16.838Z,24.30
2022-12-17T17:18:47.342Z,25.20
2022-12-17T17:21:20.793Z,22.70
2022-12-17T17:23:57.358Z,25.10
2022-12-17T17:26:30.603Z,28.00
2022-12-17T17:29:02.319Z,24.00
2022-12-17T17:32:08.586Z,28.60
2022-12-17T17:34:23.753Z,28.90
2022-12-17T17:36:54.253Z,25.50
2022-12-17T17:39:25.330Z,26.90
2022-12-17T17:41:56.152Z,26.90
2022-12-17T17:44:26.781Z,30.20
2022-12-17T17:46:57.277Z,25.90
2022-12-17T17:49:29.665Z,20.10
2022-12-17T17:52:11.563Z,25.30
2022-12-17T17:54:42.782Z,20.50
2022-12-17T17:57:14.005Z,24.10
2022-12-17T17:59:44.674Z,24.50
2022-12-17T18:02:15.666Z,25.10
2022-12-17T18:04:47.562Z,28.60
2022-12-17T18:17:12.010Z,27.30
2022-12-17T18:19:44.088Z,27.70
2022-12-17T18:22:15.089Z,27.40
2022-12-17T18:24:47.271Z,30.30
2022-12-17T18:27:23.602Z,29.60
2022-12-17T18:30:05.251Z,33.60
2022-12-17T18:33:03.463Z,36.50
2022-12-17T18:35:31.782Z,36.10
2022-12-17T18:38:07.905Z,34.40
2022-12-17T18:40:38.749Z,32.00
2022-12-17T18:43:26.718Z,32.30
2022-12-17T18:45:57.717Z,34.60
2022-12-17T18:48:31.324Z,30.50
2022-12-17T18:51:08.039Z,36.10
2022-12-17T18:53:38.563Z,34.30
2022-12-17T18:56:11.967Z,33.80
2022-12-17T18:58:48.656Z,33.90
2022-12-17T19:01:27.583Z,34.20
2022-12-17T19:03:59.904Z,36.60
2022-12-17T19:06:30.722Z,44.20
2022-12-17T19:09:06.061Z,37.70
2022-12-17T19:11:43.438Z,35.00
2022-12-17T19:14:15.634Z,33.10
2022-12-17T19:16:47.765Z,31.30
2022-12-17T19:19:18.846Z,33.70
2022-12-17T19:21:52.664Z,37.30
2022-12-17T19:24:39.267Z,37.10
2022-12-17T19:27:10.683Z,31.70
2022-12-17T19:29:46.215Z,33.90
2022-12-17T19:32:20.044Z,36.40
2022-12-17T19:34:51.123Z,31.50
2022-12-17T19:37:29.492Z,43.80
2022-12-17T19:40:03.080Z,36.60
2022-12-17T19:46:42.826Z,38.10
2022-12-17T19:49:18.202Z,36.60
2022-12-17T19:51:49.008Z,41.80
2022-12-17T19:54:21.934Z,37.10
2022-12-17T19:56:57.655Z,36.30
2022-12-17T19:59:34.775Z,37.90
2022-12-17T20:02:09.619Z,40.50
2022-12-17T20:04:40.289Z,46.90
2022-12-17T20:07:11.197Z,52.70
2022-12-17T20:09:44.498Z,44.20
2022-12-17T20:12:17.315Z,44.90
2022-12-17T20:14:48.733Z,41.50
2022-12-17T20:17:22.763Z,47.30
2022-12-17T20:19:57.767Z,41.70
2022-12-17T20:22:29.621Z,46.10
2022-12-17T20:25:05.654Z,47.90
2022-12-17T20:27:36.761Z,50.40
2022-12-17T20:30:09.250Z,47.70
2022-12-17T20:32:40.706Z,55.60
2022-12-17T20:35:14.172Z,59.50
2022-12-17T20:37:47.185Z,53.60
2022-12-17T20:40:17.581Z,52.20
2022-12-17T20:42:48.554Z,58.50
2022-12-17T20:45:20.593Z,59.10
2022-12-17T20:48:01.276Z,53.40
2022-12-17T20:50:31.905Z,52.80
2022-12-17T20:53:02.756Z,56.50
2022-12-17T20:55:33.761Z,54.70
2022-12-17T20:58:04.883Z,50.70
2022-12-17T21:05:09.026Z,70.50
2022-12-17T21:07:40.154Z,64.60
2022-12-17T21:10:11.775Z,48.70
2022-12-17T21:13:00.049Z,51.70
2022-12-17T21:15:34.153Z,52.50
2022-12-17T21:18:06.303Z,49.10
2022-12-17T21:20:37.861Z,54.90
2022-12-17T21:23:08.792Z,52.10
2022-12-17T21:25:39.402Z,54.50
2022-12-17T21:28:11.517Z,50.80
2022-12-17T21:35:26.864Z,60.20
2022-12-17T21:37:57.792Z,59.80
2022-12-17T21:40:28.375Z,59.60
2022-12-17T21:43:04.735Z,60.10
2022-12-17T21:45:40.390Z,59.10
2022-12-17T21:48:15.388Z,51.20
2022-12-17T21:50:47.523Z,51.20
2022-12-17T21:58:39.519Z,58.80
2022-12-17T22:01:41.984Z,54.20
2022-12-17T22:13:47.263Z,56.80
2022-12-17T22:14:20.866Z,52.20
2022-12-17T22:16:49.942Z,55.00
2022-12-17T22:19:46.939Z,56.30
2022-12-17T22:26:35.251Z,59.90
2022-12-17T22:29:10.402Z,55.70
2022-12-17T22:32:12.763Z,59.40
2022-12-17T22:39:10.738Z,57.40
2022-12-17T22:44:34.917Z,49.00
2022-12-17T22:44:54.403Z,46.70
2022-12-17T22:47:35.503Z,51.10
2022-12-17T22:50:21.880Z,53.20
2022-12-17T22:53:00.202Z,56.50
2022-12-17T22:55:31.750Z,53.10
2022-12-17T22:58:05.769Z,50.10
2022-12-17T23:00:38.205Z,55.20
2022-12-17T23:03:12.802Z,57.30
2022-12-17T23:05:48.993Z,55.10
2022-12-17T23:08:55.149Z,57.90
2022-12-17T23:11:37.768Z,53.50
2022-12-17T23:14:10.208Z,58.60
2022-12-17T23:16:43.830Z,56.00
2022-12-17T23:19:16.459Z,61.70
2022-12-17T23:21:47.531Z,54.80
2022-12-17T23:24:19.874Z,55.80
2022-12-17T23:26:53.481Z,52.90
2022-12-17T23:29:24.732Z,49.80
2022-12-17T23:31:57.567Z,50.80
2022-12-17T23:34:28.431Z,48.40
2022-12-17T23:37:03.698Z,52.10
2022-12-17T23:39:34.417Z,48.60
2022-12-17T23:42:06.227Z,48.30
2022-12-17T23:44:36.721Z,47.70
2022-12-17T23:47:07.201Z,50.30
2022-12-17T23:49:37.830Z,51.00
2022-12-17T23:52:08.151Z,48.70
2022-12-17T23:56:00.225Z,48.80
2022-12-17T23:58:36.956Z,56.80
